createdAt,value
2018-08-20T00:00:52.469Z,23.90
2018-08-20T00:03:19.744Z,23.90
2018-08-20T00:05:52.568Z,23.80
2018-08-20T00:08:20.016Z,23.80
2018-08-20T00:10:47.336Z,23.80
2018-08-20T00:13:14.732Z,23.80
2018-08-20T00:15:42.030Z,23.80
2018-08-20T00:18:13.968Z,23.80
2018-08-20T00:20:41.178Z,23.80
2018-08-20T00:23:08.360Z,23.70
2018-08-20T00:25:35.572Z,23.70
2018-08-20T00:28:02.793Z,23.70
2018-08-20T00:30:30.036Z,23.70
2018-08-20T00:32:57.236Z,23.70
2018-08-20T00:35:24.500Z,23.70
2018-08-20T00:37:52.444Z,23.70
2018-08-20T00:40:20.616Z,23.70
2018-08-20T00:42:48.135Z,23.70
2018-08-20T00:45:15.374Z,23.70
2018-08-20T00:47:42.595Z,23.60
2018-08-20T00:50:10.264Z,23.60
2018-08-20T00:52:37.727Z,23.60
2018-08-20T00:55:06.720Z,23.60
2018-08-20T00:57:33.984Z,23.60
2018-08-20T01:00:01.170Z,23.60
2018-08-20T01:02:29.160Z,23.60
2018-08-20T01:04:57.163Z,23.60
2018-08-20T01:07:24.796Z,23.50
2018-08-20T01:09:52.244Z,23.50
2018-08-20T01:12:19.444Z,23.50
2018-08-20T01:14:46.612Z,23.60
2018-08-20T01:17:13.771Z,23.60
2018-08-20T01:19:40.942Z,23.50
2018-08-20T01:22:08.200Z,23.50
2018-08-20T01:24:35.425Z,23.50
2018-08-20T01:27:02.601Z,23.50
2018-08-20T01:29:29.812Z,23.50
2018-08-20T01:31:57.764Z,23.50
2018-08-20T01:34:24.988Z,23.50
2018-08-20T01:36:52.198Z,23.50
2018-08-20T01:39:19.428Z,23.50
2018-08-20T01:41:46.576Z,23.40
2018-08-20T01:44:13.780Z,23.50
2018-08-20T01:46:41.072Z,23.40
2018-08-20T01:49:08.276Z,23.40
2018-08-20T01:51:35.480Z,23.40
2018-08-20T01:54:02.758Z,23.40
2018-08-20T01:56:30.024Z,23.40
2018-08-20T01:58:57.247Z,23.40
2018-08-20T02:01:24.519Z,23.40
2018-08-20T02:03:51.811Z,23.40
2018-08-20T02:06:19.979Z,23.40
2018-08-20T02:08:47.294Z,23.40
2018-08-20T02:11:14.571Z,23.40
2018-08-20T02:13:41.840Z,23.40
2018-08-20T02:16:09.079Z,23.40
2018-08-20T02:18:36.341Z,23.30
2018-08-20T02:21:03.561Z,23.40
2018-08-20T02:23:30.781Z,23.40
2018-08-20T02:25:58.000Z,23.40
2018-08-20T02:28:25.268Z,23.30
2018-08-20T02:30:52.456Z,23.30
2018-08-20T02:33:19.661Z,23.40
2018-08-20T02:35:46.871Z,23.30
2018-08-20T02:38:14.120Z,23.40
2018-08-20T02:40:41.335Z,23.40
2018-08-20T02:43:08.642Z,23.40
2018-08-20T02:45:35.908Z,23.30
2018-08-20T02:48:03.180Z,23.40
2018-08-20T02:50:30.473Z,23.30
2018-08-20T02:52:57.701Z,23.30
2018-08-20T02:55:24.912Z,23.30
2018-08-20T02:57:52.134Z,23.30
2018-08-20T03:00:19.351Z,23.30
2018-08-20T03:02:46.604Z,23.30
2018-08-20T03:05:13.764Z,23.30
2018-08-20T03:07:41.029Z,23.20
2018-08-20T03:10:10.212Z,23.20
2018-08-20T03:12:37.407Z,23.30
2018-08-20T03:15:05.764Z,23.20
2018-08-20T03:17:33.140Z,23.20
2018-08-20T03:20:00.240Z,23.10
2018-08-20T03:22:27.423Z,23.10
2018-08-20T03:24:54.612Z,23.10
2018-08-20T03:27:22.465Z,23.00
2018-08-20T03:29:49.688Z,23.00
2018-08-20T03:32:16.888Z,23.00
2018-08-20T03:34:44.136Z,23.00
2018-08-20T03:37:11.346Z,23.00
2018-08-20T03:39:38.517Z,23.00
2018-08-20T03:42:05.997Z,23.00
2018-08-20T03:44:33.205Z,23.00
2018-08-20T03:47:00.420Z,22.90
2018-08-20T03:49:27.692Z,22.90
2018-08-20T03:51:54.929Z,22.90
2018-08-20T03:54:22.090Z,22.90
2018-08-20T03:56:49.368Z,22.90
2018-08-20T03:59:29.979Z,22.80
2018-08-20T04:01:58.341Z,22.80
2018-08-20T04:04:25.916Z,22.80
2018-08-20T04:06:53.152Z,22.70
2018-08-20T04:09:20.292Z,22.70
2018-08-20T04:11:47.544Z,22.70
2018-08-20T04:14:14.708Z,22.70
2018-08-20T04:16:41.885Z,22.70
2018-08-20T04:19:09.076Z,22.70
2018-08-20T04:21:36.591Z,22.60
2018-08-20T04:24:04.375Z,22.60
2018-08-20T04:26:31.615Z,22.60
2018-08-20T04:28:58.872Z,22.60
2018-08-20T04:31:26.060Z,22.60
2018-08-20T04:33:54.199Z,22.60
2018-08-20T04:36:21.494Z,22.60
2018-08-20T04:38:48.675Z,22.60
2018-08-20T04:41:15.945Z,22.60
2018-08-20T04:43:43.176Z,22.50
2018-08-20T04:46:10.386Z,22.60
2018-08-20T04:48:37.590Z,22.50
2018-08-20T04:51:04.996Z,22.50
2018-08-20T04:53:32.014Z,22.50
2018-08-20T04:55:59.276Z,22.50
2018-08-20T04:58:26.526Z,22.50
2018-08-20T05:00:53.741Z,22.50
2018-08-20T05:03:20.914Z,22.50
2018-08-20T05:05:48.279Z,22.50
2018-08-20T05:08:15.481Z,22.50
2018-08-20T05:10:42.716Z,22.50
2018-08-20T05:13:09.909Z,22.50
2018-08-20T05:15:37.168Z,22.50
2018-08-20T05:18:04.672Z,22.50
2018-08-20T05:20:31.946Z,22.50
2018-08-20T05:22:59.136Z,22.60
2018-08-20T05:25:26.318Z,22.50
2018-08-20T05:27:53.461Z,22.60
2018-08-20T05:30:20.729Z,22.40
2018-08-20T05:32:48.000Z,22.50
2018-08-20T05:35:15.293Z,22.50
2018-08-20T05:37:42.502Z,22.50
2018-08-20T05:40:09.688Z,22.50
2018-08-20T05:42:36.888Z,22.60
2018-08-20T05:45:06.518Z,22.60
2018-08-20T05:47:33.701Z,22.60
2018-08-20T05:50:00.954Z,22.60
2018-08-20T05:52:28.166Z,22.60
2018-08-20T05:54:55.372Z,22.60
2018-08-20T05:57:22.511Z,22.60
2018-08-20T05:59:49.804Z,22.60
2018-08-20T06:02:17.096Z,22.70
2018-08-20T06:04:44.275Z,22.70
2018-08-20T06:07:11.525Z,22.70
2018-08-20T06:09:38.729Z,22.70
2018-08-20T06:12:05.971Z,22.70
2018-08-20T06:14:33.240Z,22.80
2018-08-20T06:17:00.996Z,22.80
2018-08-20T06:19:28.291Z,22.80
2018-08-20T06:21:55.478Z,22.90
2018-08-20T06:24:22.712Z,22.90
2018-08-20T06:26:49.941Z,22.90
2018-08-20T06:29:17.204Z,22.90
2018-08-20T06:31:44.427Z,22.90
2018-08-20T06:34:11.626Z,23.00
2018-08-20T06:36:38.847Z,22.90
2018-08-20T06:39:07.188Z,23.00
2018-08-20T06:41:34.542Z,23.00
2018-08-20T06:44:02.425Z,23.00
2018-08-20T06:46:29.630Z,23.00
2018-08-20T06:48:56.887Z,23.00
2018-08-20T06:51:24.089Z,23.00
2018-08-20T06:53:51.340Z,23.00
2018-08-20T06:56:18.645Z,23.00
2018-08-20T06:58:45.818Z,23.00
2018-08-20T07:01:13.053Z,23.00
2018-08-20T07:03:40.221Z,23.00
2018-08-20T07:06:07.516Z,23.10
2018-08-20T07:08:34.745Z,23.10
2018-08-20T07:11:01.952Z,23.20
2018-08-20T07:13:31.739Z,23.20
2018-08-20T07:15:58.990Z,23.20
2018-08-20T07:18:26.296Z,23.30
2018-08-20T07:20:53.527Z,23.30
2018-08-20T07:23:20.763Z,23.30
2018-08-20T07:25:48.036Z,23.30
2018-08-20T07:28:15.339Z,23.30
2018-08-20T07:30:42.588Z,23.40
2018-08-20T07:33:09.877Z,23.40
2018-08-20T07:35:37.131Z,23.40
2018-08-20T07:38:04.425Z,23.40
2018-08-20T07:40:31.676Z,23.50
2018-08-20T07:42:58.944Z,23.40
2018-08-20T07:45:26.294Z,23.50
2018-08-20T07:47:53.569Z,23.50
2018-08-20T07:50:20.823Z,23.50
2018-08-20T07:52:48.277Z,23.50
2018-08-20T07:55:15.581Z,23.50
2018-08-20T07:57:42.821Z,23.50
2018-08-20T08:00:10.132Z,23.50
2018-08-20T08:02:37.744Z,23.50
2018-08-20T08:05:06.725Z,23.50
2018-08-20T08:07:34.180Z,23.50
2018-08-20T08:10:01.440Z,23.50
2018-08-20T08:12:28.608Z,23.50
2018-08-20T08:14:55.879Z,23.50
2018-08-20T08:17:23.101Z,23.60
2018-08-20T08:19:50.447Z,23.50
2018-08-20T08:22:17.600Z,23.50
2018-08-20T08:24:44.805Z,23.60
2018-08-20T08:27:12.057Z,23.50
2018-08-20T08:29:39.356Z,23.60
2018-08-20T08:32:06.570Z,23.60
2018-08-20T08:34:33.804Z,23.60
2018-08-20T08:37:01.007Z,23.70
2018-08-20T08:39:28.209Z,23.70
2018-08-20T08:41:55.498Z,23.70
2018-08-20T08:44:22.656Z,23.70
2018-08-20T08:46:49.901Z,23.70
2018-08-20T08:49:17.116Z,23.70
2018-08-20T08:51:44.356Z,23.80
2018-08-20T08:54:11.596Z,23.80
2018-08-20T08:56:38.794Z,23.80
2018-08-20T08:59:06.028Z,23.80
2018-08-20T09:01:33.326Z,23.80
2018-08-20T09:04:00.568Z,23.80
2018-08-20T09:06:27.809Z,23.90
2018-08-20T09:08:55.032Z,23.90
2018-08-20T09:11:22.241Z,23.90
2018-08-20T09:13:49.663Z,23.90
2018-08-20T09:16:16.880Z,23.90
2018-08-20T09:18:44.066Z,23.90
2018-08-20T09:21:11.249Z,23.90
2018-08-20T09:23:38.461Z,23.90
2018-08-20T09:26:05.653Z,23.90
2018-08-20T09:28:32.928Z,23.90
2018-08-20T09:31:00.413Z,23.90
2018-08-20T09:33:27.672Z,24.00
2018-08-20T09:35:54.929Z,24.00
2018-08-20T09:38:22.199Z,24.00
2018-08-20T09:40:49.369Z,24.00
2018-08-20T09:43:16.596Z,24.00
2018-08-20T09:45:43.816Z,24.00
2018-08-20T09:48:11.037Z,24.00
2018-08-20T09:50:38.267Z,24.00
2018-08-20T09:53:05.480Z,24.00
2018-08-20T09:55:32.695Z,24.00
2018-08-20T09:57:59.927Z,23.90
2018-08-20T10:00:32.760Z,24.00
2018-08-20T10:03:00.628Z,24.00
2018-08-20T10:05:27.855Z,24.00
2018-08-20T10:07:55.108Z,24.00
2018-08-20T10:10:22.277Z,24.00
2018-08-20T10:12:49.616Z,24.00
2018-08-20T10:15:16.813Z,24.10
2018-08-20T10:17:44.257Z,24.10
2018-08-20T10:20:12.561Z,24.10
2018-08-20T10:22:39.801Z,24.10
2018-08-20T10:25:07.026Z,24.10
2018-08-20T10:27:34.267Z,24.10
2018-08-20T10:30:01.725Z,24.10
2018-08-20T10:32:29.212Z,24.10
2018-08-20T10:34:56.421Z,24.10
2018-08-20T10:37:23.635Z,24.20
2018-08-20T10:39:50.851Z,24.20
2018-08-20T10:42:18.130Z,24.20
2018-08-20T10:44:50.980Z,24.20
2018-08-20T10:47:18.417Z,24.30
2018-08-20T10:49:45.610Z,24.40
2018-08-20T10:52:12.840Z,24.40
2018-08-20T10:54:40.196Z,24.50
2018-08-20T10:57:07.566Z,24.50
2018-08-20T10:59:34.913Z,24.40
2018-08-20T11:02:02.201Z,24.40
2018-08-20T11:04:29.399Z,24.40
2018-08-20T11:06:56.679Z,24.30
2018-08-20T11:09:23.886Z,24.40
2018-08-20T11:11:51.112Z,24.50
2018-08-20T11:14:18.380Z,24.40
2018-08-20T11:16:45.597Z,24.40
2018-08-20T11:19:12.796Z,24.40
2018-08-20T11:21:40.016Z,24.50
2018-08-20T11:24:07.200Z,24.50
2018-08-20T11:26:34.434Z,24.70
2018-08-20T11:29:01.592Z,24.70
2018-08-20T11:31:28.754Z,24.70
2018-08-20T11:33:56.029Z,24.80
2018-08-20T11:36:23.217Z,24.90
2018-08-20T11:38:50.500Z,24.70
2018-08-20T11:41:17.788Z,24.60
2018-08-20T11:43:45.709Z,24.60
2018-08-20T11:46:13.028Z,24.60
2018-08-20T11:48:40.240Z,24.70
2018-08-20T11:51:07.588Z,24.90
2018-08-20T11:53:34.705Z,24.80
2018-08-20T11:56:02.157Z,24.80
2018-08-20T11:58:29.600Z,24.80
2018-08-20T12:00:56.865Z,24.70
2018-08-20T12:03:24.156Z,24.60
2018-08-20T12:05:51.353Z,24.60
2018-08-20T12:08:18.564Z,24.60
2018-08-20T12:10:45.760Z,24.50
2018-08-20T12:13:13.006Z,24.60
2018-08-20T12:15:40.246Z,24.50
2018-08-20T12:18:07.449Z,24.50
2018-08-20T12:20:34.656Z,24.50
2018-08-20T12:23:01.919Z,24.50
2018-08-20T12:25:29.129Z,24.50
2018-08-20T12:27:56.294Z,24.50
2018-08-20T12:30:23.472Z,24.60
2018-08-20T12:32:50.636Z,24.50
2018-08-20T12:35:17.809Z,24.50
2018-08-20T12:37:44.957Z,24.50
2018-08-20T12:40:12.214Z,24.50
2018-08-20T12:42:39.352Z,24.50
2018-08-20T12:45:06.832Z,24.50
2018-08-20T12:47:34.053Z,24.50
2018-08-20T12:50:01.192Z,24.50
2018-08-20T12:52:28.373Z,24.50
2018-08-20T12:54:55.612Z,24.40
2018-08-20T12:57:22.845Z,24.40
2018-08-20T12:59:52.085Z,24.40
2018-08-20T13:02:19.285Z,24.50
2018-08-20T13:04:46.424Z,24.40
2018-08-20T13:07:13.704Z,24.40
2018-08-20T13:09:40.905Z,24.50
2018-08-20T13:12:08.185Z,24.40
2018-08-20T13:14:35.348Z,24.50
2018-08-20T13:17:02.607Z,24.50
2018-08-20T13:19:29.840Z,24.40
2018-08-20T13:21:57.061Z,24.40
2018-08-20T13:24:24.236Z,24.40
2018-08-20T13:26:51.515Z,24.40
2018-08-20T13:29:18.757Z,24.40
2018-08-20T13:31:45.968Z,24.40
2018-08-20T13:34:13.249Z,24.40
2018-08-20T13:36:40.447Z,24.50
2018-08-20T13:39:08.036Z,24.40
2018-08-20T13:41:35.341Z,24.40
2018-08-20T13:44:02.789Z,24.50
2018-08-20T13:46:30.021Z,24.40
2018-08-20T13:48:57.293Z,24.40
2018-08-20T13:51:24.500Z,24.50
2018-08-20T13:53:51.748Z,24.50
2018-08-20T13:56:18.940Z,24.50
2018-08-20T13:58:46.221Z,24.50
2018-08-20T14:01:13.423Z,24.50
2018-08-20T14:03:40.607Z,24.50
2018-08-20T14:06:07.898Z,24.50
2018-08-20T14:08:35.156Z,24.50
2018-08-20T14:11:02.436Z,24.50
2018-08-20T14:13:29.669Z,24.50
2018-08-20T14:15:56.943Z,24.50
2018-08-20T14:18:24.108Z,24.50
2018-08-20T14:21:22.595Z,24.50
2018-08-20T14:23:49.781Z,24.50
2018-08-20T14:26:17.018Z,24.50
2018-08-20T14:28:44.331Z,24.50
2018-08-20T14:31:11.642Z,24.50
2018-08-20T14:33:38.861Z,24.50
2018-08-20T14:36:06.265Z,24.60
2018-08-20T14:38:33.857Z,24.00
2018-08-20T14:41:01.106Z,24.40
2018-08-20T14:43:28.361Z,24.40
2018-08-20T14:46:01.106Z,24.50
2018-08-20T14:48:28.753Z,24.40
2018-08-20T14:50:55.934Z,24.50
2018-08-20T14:53:23.218Z,24.50
2018-08-20T14:55:50.408Z,24.40
2018-08-20T14:58:17.655Z,24.50
2018-08-20T15:00:44.864Z,24.40
2018-08-20T15:03:12.089Z,24.50
2018-08-20T15:05:39.401Z,24.40
2018-08-20T15:08:06.624Z,24.50
2018-08-20T15:10:33.789Z,24.50
2018-08-20T15:13:00.984Z,24.40
2018-08-20T15:15:28.300Z,24.50
2018-08-20T15:17:55.357Z,24.50
2018-08-20T15:20:22.588Z,24.50
2018-08-20T15:22:49.795Z,24.50
2018-08-20T15:25:17.069Z,24.50
2018-08-20T15:27:44.228Z,24.50
2018-08-20T15:30:11.296Z,24.50
2018-08-20T15:32:38.475Z,24.50
2018-08-20T15:35:05.696Z,24.50
2018-08-20T15:37:32.865Z,24.50
2018-08-20T15:40:00.125Z,24.50
2018-08-20T15:42:27.336Z,24.50
2018-08-20T15:44:54.540Z,24.50
2018-08-20T15:47:21.740Z,24.50
2018-08-20T15:49:49.001Z,24.50
2018-08-20T15:52:16.325Z,24.50
2018-08-20T15:54:43.748Z,24.50
2018-08-20T15:57:11.005Z,24.50
2018-08-20T15:59:38.224Z,24.50
2018-08-20T16:02:05.570Z,24.50
2018-08-20T16:04:32.675Z,24.50
2018-08-20T16:06:59.948Z,24.60
2018-08-20T16:09:27.245Z,24.50
2018-08-20T16:11:54.427Z,24.50
2018-08-20T16:14:21.668Z,24.50
2018-08-20T16:16:48.945Z,24.50
2018-08-20T16:19:16.156Z,24.50
2018-08-20T16:21:43.384Z,24.50
2018-08-20T16:24:10.668Z,24.50
2018-08-20T16:26:37.947Z,24.50
2018-08-20T16:29:05.297Z,24.50
2018-08-20T16:31:32.515Z,24.40
2018-08-20T16:33:59.799Z,24.40
2018-08-20T16:36:27.068Z,24.50
2018-08-20T16:38:54.301Z,24.40
2018-08-20T16:41:21.577Z,24.50
2018-08-20T16:43:48.872Z,24.50
2018-08-20T16:46:16.100Z,24.40
2018-08-20T16:48:43.351Z,24.40
2018-08-20T16:51:10.595Z,24.40
2018-08-20T16:53:37.769Z,24.40
2018-08-20T16:56:04.977Z,24.50
2018-08-20T16:58:32.120Z,24.40
2018-08-20T17:00:59.363Z,24.40
2018-08-20T17:03:28.053Z,24.40
2018-08-20T17:05:56.168Z,24.40
2018-08-20T17:08:27.968Z,24.40
2018-08-20T17:10:55.216Z,24.40
2018-08-20T17:13:22.500Z,24.40
2018-08-20T17:15:49.716Z,24.40
2018-08-20T17:18:16.921Z,24.40
2018-08-20T17:20:44.092Z,24.40
2018-08-20T17:23:17.531Z,24.40
2018-08-20T17:25:44.736Z,24.40
2018-08-20T17:28:11.968Z,24.40
2018-08-20T17:30:39.272Z,24.40
2018-08-20T17:33:06.981Z,24.40
2018-08-20T17:35:38.697Z,24.40
2018-08-20T17:38:06.172Z,24.40
2018-08-20T17:40:35.930Z,24.40
2018-08-20T17:43:03.253Z,24.40
2018-08-20T17:45:30.446Z,24.30
2018-08-20T17:47:57.704Z,24.30
2018-08-20T17:50:44.475Z,24.30
2018-08-20T17:53:11.736Z,24.30
2018-08-20T17:55:38.993Z,24.40
2018-08-20T17:58:06.250Z,24.30
2018-08-20T18:00:40.753Z,24.30
2018-08-20T18:03:15.577Z,24.30
2018-08-20T18:05:42.876Z,24.30
2018-08-20T18:08:10.145Z,24.30
2018-08-20T18:10:37.431Z,24.30
2018-08-20T18:13:04.776Z,24.30
2018-08-20T18:15:31.972Z,24.30
2018-08-20T18:17:59.212Z,24.30
2018-08-20T18:20:28.148Z,24.30
2018-08-20T18:22:55.333Z,24.30
2018-08-20T18:25:25.313Z,24.30
2018-08-20T18:27:52.768Z,24.30
2018-08-20T18:30:20.035Z,24.30
2018-08-20T18:32:47.186Z,24.30
2018-08-20T18:35:16.516Z,24.20
2018-08-20T18:37:50.093Z,24.30
2018-08-20T18:40:17.826Z,24.20
2018-08-20T18:42:46.411Z,24.20
2018-08-20T18:45:13.688Z,24.20
2018-08-20T18:47:40.960Z,24.20
2018-08-20T18:50:08.546Z,24.20
2018-08-20T18:52:35.771Z,24.20
2018-08-20T18:55:03.007Z,24.10
2018-08-20T18:57:32.608Z,24.20
2018-08-20T19:00:01.185Z,24.10
2018-08-20T19:02:59.609Z,24.10
2018-08-20T19:05:26.877Z,24.10
2018-08-20T19:07:54.062Z,24.10
2018-08-20T19:10:25.943Z,24.10
2018-08-20T19:12:53.191Z,24.20
2018-08-20T19:15:42.488Z,24.10
2018-08-20T19:18:11.570Z,24.10
2018-08-20T19:20:39.485Z,24.10
2018-08-20T19:23:06.753Z,24.10
2018-08-20T19:25:34.008Z,24.10
2018-08-20T19:28:01.617Z,24.00
2018-08-20T19:30:30.880Z,24.10
2018-08-20T19:32:58.097Z,24.00
2018-08-20T19:35:25.312Z,24.00
2018-08-20T19:37:52.544Z,24.00
2018-08-20T19:40:19.816Z,24.10
2018-08-20T19:42:50.631Z,24.00
2018-08-20T19:45:17.901Z,24.00
2018-08-20T19:47:45.112Z,24.00
2018-08-20T19:50:12.350Z,24.00
2018-08-20T19:52:39.524Z,24.00
2018-08-20T19:55:09.372Z,24.00
2018-08-20T19:57:36.624Z,24.00
2018-08-20T20:00:09.381Z,23.90
2018-08-20T20:02:37.166Z,23.90
2018-08-20T20:05:05.521Z,23.90
2018-08-20T20:07:34.028Z,23.90
2018-08-20T20:10:06.244Z,23.90
2018-08-20T20:12:36.448Z,23.90
2018-08-20T20:15:03.733Z,23.90
2018-08-20T20:17:30.905Z,23.90
2018-08-20T20:19:58.162Z,23.90
2018-08-20T20:22:25.357Z,23.90
2018-08-20T20:24:52.612Z,23.80
2018-08-20T20:27:19.817Z,23.90
2018-08-20T20:29:47.048Z,23.80
2018-08-20T20:32:14.293Z,23.80
2018-08-20T20:34:41.496Z,23.80
2018-08-20T20:37:08.731Z,23.80
2018-08-20T20:39:39.280Z,23.80
2018-08-20T20:42:06.473Z,23.80
2018-08-20T20:44:33.615Z,23.80
2018-08-20T20:47:00.839Z,23.80
2018-08-20T20:49:28.084Z,23.80
2018-08-20T20:51:55.301Z,23.80
2018-08-20T20:54:22.520Z,23.80
2018-08-20T20:56:49.793Z,23.70
2018-08-20T20:59:17.044Z,23.80
2018-08-20T21:01:44.228Z,23.80
2018-08-20T21:04:17.188Z,23.80
2018-08-20T21:06:44.412Z,23.70
2018-08-20T21:09:12.508Z,23.70
2018-08-20T21:11:39.769Z,23.70
2018-08-20T21:14:07.115Z,23.70
2018-08-20T21:16:34.344Z,23.70
2018-08-20T21:19:03.691Z,23.70
2018-08-20T21:21:31.133Z,23.70
2018-08-20T21:23:58.333Z,23.70
2018-08-20T21:26:25.625Z,23.70
2018-08-20T21:28:53.524Z,23.70
2018-08-20T21:31:21.920Z,23.60
2018-08-20T21:33:57.769Z,23.60
2018-08-20T21:36:25.041Z,23.70
2018-08-20T21:38:52.360Z,23.60
2018-08-20T21:41:23.968Z,23.60
2018-08-20T21:43:51.428Z,23.60
2018-08-20T21:46:18.701Z,23.60
2018-08-20T21:48:45.940Z,23.60
2018-08-20T21:51:19.093Z,23.60
2018-08-20T21:53:46.310Z,23.60
2018-08-20T21:56:13.550Z,23.60
2018-08-20T21:58:41.859Z,23.60
2018-08-20T22:01:10.392Z,23.60
2018-08-20T22:03:37.848Z,23.60
2018-08-20T22:06:05.108Z,23.70
2018-08-20T22:08:32.391Z,23.60
2018-08-20T22:10:59.682Z,23.70
2018-08-20T22:13:26.936Z,23.70
2018-08-20T22:16:13.738Z,23.60
2018-08-20T22:18:42.172Z,23.60
2018-08-20T22:21:11.671Z,23.60
2018-08-20T22:23:39.609Z,23.60
2018-08-20T22:26:08.628Z,23.60
2018-08-20T22:28:35.940Z,23.60
2018-08-20T22:31:04.070Z,23.60
2018-08-20T22:33:31.412Z,23.60
2018-08-20T22:35:58.700Z,23.60
2018-08-20T22:38:25.829Z,23.60
2018-08-20T22:40:52.999Z,23.60
2018-08-20T22:43:20.208Z,23.50
2018-08-20T22:45:47.349Z,24.30
2018-08-20T22:48:14.572Z,23.60
2018-08-20T22:50:41.768Z,23.60
2018-08-20T22:53:08.972Z,23.50
2018-08-20T22:55:36.700Z,23.60
2018-08-20T22:58:08.228Z,23.60
2018-08-20T23:00:35.591Z,23.50
2018-08-20T23:03:02.909Z,23.60
2018-08-20T23:05:30.830Z,23.60
2018-08-20T23:08:06.752Z,23.50
2018-08-20T23:10:35.020Z,23.60
2018-08-20T23:13:02.237Z,23.50
2018-08-20T23:15:29.492Z,23.60
2018-08-20T23:17:56.714Z,23.50
2018-08-20T23:20:29.436Z,23.60
2018-08-20T23:22:56.633Z,23.50
2018-08-20T23:25:23.849Z,23.50
2018-08-20T23:27:51.073Z,23.50
2018-08-20T23:30:18.552Z,23.60
2018-08-20T23:32:45.743Z,23.50
2018-08-20T23:35:12.912Z,23.50
2018-08-20T23:37:40.290Z,23.50
2018-08-20T23:40:07.500Z,23.60
2018-08-20T23:42:34.751Z,23.50
2018-08-20T23:45:01.985Z,23.50
2018-08-20T23:47:29.236Z,23.50
2018-08-20T23:49:56.454Z,23.50
2018-08-20T23:52:23.672Z,23.50
2018-08-20T23:54:50.888Z,23.50
2018-08-20T23:57:18.089Z,23.50
2018-08-20T23:59:45.363Z,23.50
